createdAt,value
2018-08-18T00:00:18.778Z,50.9
2018-08-18T00:01:09.344Z,50.9
2018-08-18T00:01:58.889Z,50.9
2018-08-18T00:02:49.547Z,50.9
2018-08-18T00:03:39.340Z,50.9
2018-08-18T00:04:29.422Z,50.9
2018-08-18T00:05:19.721Z,50.9
2018-08-18T00:06:09.548Z,50.9
2018-08-18T00:06:59.854Z,50.9
2018-08-18T00:07:49.671Z,50.9
2018-08-18T00:08:38.867Z,50.9
2018-08-18T00:09:29.788Z,50.9
2018-08-18T00:10:20.194Z,50.9
2018-08-18T00:11:09.620Z,50.9
2018-08-18T00:11:59.707Z,50.9
2018-08-18T00:12:50.315Z,50.8
2018-08-18T00:13:40.386Z,50.9
2018-08-18T00:14:29.881Z,50.8
2018-08-18T00:15:20.231Z,50.8
2018-08-18T00:16:10.553Z,50.8
2018-08-18T00:17:00.358Z,50.8
2018-08-18T00:17:50.387Z,50.8
2018-08-18T00:18:40.152Z,50.8
2018-08-18T00:37:33.775Z,50.6
2018-08-18T00:38:23.236Z,50.7
2018-08-18T00:39:13.563Z,50.6
2018-08-18T00:40:03.045Z,50.6
2018-08-18T00:40:53.675Z,50.6
2018-08-18T00:41:44.049Z,50.6
2018-08-18T00:42:33.247Z,50.6
2018-08-18T00:43:24.146Z,50.6
2018-08-18T00:44:13.993Z,50.6
2018-08-18T00:45:04.298Z,50.6
2018-08-18T00:45:54.075Z,50.6
2018-08-18T00:46:44.148Z,50.6
2018-08-18T00:47:34.490Z,50.6
2018-08-18T00:48:24.001Z,50.6
2018-08-18T00:49:14.684Z,50.6
2018-08-18T00:50:04.402Z,50.6
2018-08-18T00:50:54.250Z,50.6
2018-08-18T00:51:44.538Z,50.6
2018-08-18T00:52:34.601Z,50.6
2018-08-18T00:53:24.097Z,50.6
2018-08-18T00:54:15.067Z,50.5
2018-08-18T00:55:04.881Z,50.5
2018-08-18T00:55:55.158Z,50.5
2018-08-18T00:56:45.246Z,50.5
2018-08-18T00:57:34.461Z,50.5
2018-08-18T00:58:25.053Z,50.5
2018-08-18T00:59:15.408Z,50.5
2018-08-18T01:00:05.466Z,50.5
2018-08-18T01:00:54.980Z,50.5
2018-08-18T01:01:45.574Z,50.4
2018-08-18T01:02:35.374Z,50.5
2018-08-18T01:03:25.736Z,50.4
2018-08-18T01:04:15.188Z,50.5
2018-08-18T01:05:05.604Z,50.5
2018-08-18T01:05:55.886Z,50.4
2018-08-18T01:06:45.410Z,50.4
2018-08-18T01:07:35.455Z,50.4
2018-08-18T01:08:25.580Z,50.4
2018-08-18T01:09:15.839Z,50.4
2018-08-18T01:10:05.936Z,50.4
2018-08-18T01:10:56.946Z,50.4
2018-08-18T01:11:48.677Z,50.4
2018-08-18T01:12:37.950Z,50.4
2018-08-18T01:13:25.971Z,50.4
2018-08-18T01:14:17.958Z,50.4
2018-08-18T01:15:06.304Z,50.4
2018-08-18T01:15:56.529Z,50.4
2018-08-18T01:16:46.459Z,50.4
2018-08-18T01:17:36.484Z,50.4
2018-08-18T01:18:26.869Z,50.4
2018-08-18T01:19:16.320Z,50.4
2018-08-18T01:20:06.725Z,50.4
2018-08-18T01:20:57.055Z,50.3
2018-08-18T01:21:47.110Z,50.4
2018-08-18T01:22:36.632Z,50.3
2018-08-18T01:23:26.972Z,50.3
2018-08-18T01:24:17.342Z,50.3
2018-08-18T01:25:07.386Z,50.3
2018-08-18T01:25:56.878Z,50.3
2018-08-18T01:26:47.242Z,50.3
2018-08-18T01:27:37.609Z,50.3
2018-08-18T01:28:27.699Z,50.3
2018-08-18T01:29:17.427Z,50.3
2018-08-18T01:30:07.499Z,50.3
2018-08-18T01:30:57.285Z,50.3
2018-08-18T01:31:47.053Z,50.3
2018-08-18T01:32:37.986Z,50.3
2018-08-18T01:33:28.029Z,50.3
2018-08-18T01:34:18.101Z,50.3
2018-08-18T01:35:07.896Z,50.3
2018-08-18T01:35:58.250Z,50.3
2018-08-18T01:36:48.293Z,50.2
2018-08-18T01:37:36.940Z,50.3
2018-08-18T01:38:27.010Z,50.2
2018-08-18T01:39:17.911Z,50.3
2018-08-18T01:40:07.362Z,50.2
2018-08-18T01:40:58.305Z,50.2
2018-08-18T01:41:47.806Z,50.2
2018-08-18T01:42:37.560Z,50.2
2018-08-18T01:43:27.920Z,50.2
2018-08-18T01:44:18.845Z,50.2
2018-08-18T01:45:08.350Z,50.2
2018-08-18T01:45:58.392Z,50.2
2018-08-18T01:46:48.209Z,50.2
2018-08-18T01:47:38.801Z,50.2
2018-08-18T01:48:28.594Z,50.1
2018-08-18T01:49:18.932Z,50.1
2018-08-18T01:50:08.716Z,50.1
2018-08-18T01:50:59.096Z,50.1
2018-08-18T01:51:48.613Z,50.1
2018-08-18T01:52:38.888Z,50.1
2018-08-18T01:53:29.281Z,50.1
2018-08-18T01:54:19.342Z,50.1
2018-08-18T01:55:09.163Z,50.1
2018-08-18T01:55:59.737Z,50.1
2018-08-18T01:56:49.509Z,50.1
2018-08-18T01:57:39.886Z,50.1
2018-08-18T01:58:29.732Z,50.1
2018-08-18T01:59:19.479Z,50.1
2018-08-18T02:00:09.545Z,50.1
2018-08-18T02:00:59.668Z,50.1
2018-08-18T02:01:50.239Z,50.1
2018-08-18T02:02:40.291Z,50.1
2018-08-18T02:03:30.315Z,50.1
2018-08-18T02:04:19.855Z,50.1
2018-08-18T02:05:10.478Z,50.1
2018-08-18T02:06:00.277Z,50
2018-08-18T02:06:50.015Z,50
2018-08-18T02:07:40.656Z,50
2018-08-18T02:08:30.713Z,50
2018-08-18T02:09:20.236Z,50
2018-08-18T02:10:10.295Z,50
2018-08-18T02:11:00.645Z,50
2018-08-18T02:11:50.983Z,50
2018-08-18T02:12:40.256Z,50
2018-08-18T02:13:30.825Z,49.9
2018-08-18T02:14:20.625Z,49.9
2018-08-18T02:15:10.731Z,49.9
2018-08-18T02:16:01.275Z,49.9
2018-08-18T02:16:51.061Z,49.9
2018-08-18T02:17:41.445Z,49.9
2018-08-18T02:18:31.447Z,49.9
2018-08-18T02:19:20.675Z,49.9
2018-08-18T02:20:12.480Z,49.9
2018-08-18T02:21:01.659Z,49.9
2018-08-18T02:21:51.719Z,49.9
2018-08-18T02:22:41.795Z,49.9
2018-08-18T02:23:31.279Z,49.9
2018-08-18T02:24:21.679Z,49.9
2018-08-18T02:25:11.412Z,49.9
2018-08-18T02:26:00.606Z,49.9
2018-08-18T02:26:50.987Z,49.9
2018-08-18T02:27:41.615Z,49.9
2018-08-18T02:28:31.970Z,49.9
2018-08-18T02:29:21.442Z,49.9
2018-08-18T02:30:12.400Z,49.8
2018-08-18T02:31:01.915Z,49.9
2018-08-18T02:31:52.484Z,49.9
2018-08-18T02:32:41.722Z,49.9
2018-08-18T02:33:32.352Z,49.8
2018-08-18T02:34:22.427Z,49.8
2018-08-18T02:35:12.520Z,49.8
2018-08-18T02:36:02.592Z,49.8
2018-08-18T02:36:52.636Z,49.8
2018-08-18T02:37:42.994Z,49.8
2018-08-18T02:38:32.529Z,49.8
2018-08-18T02:39:22.282Z,49.8
2018-08-18T02:40:14.219Z,49.8
2018-08-18T02:41:02.119Z,49.8
2018-08-18T02:41:53.003Z,49.8
2018-08-18T02:42:43.088Z,49.8
2018-08-18T02:43:33.137Z,49.8
2018-08-18T02:44:23.198Z,49.8
2018-08-18T02:45:13.278Z,49.8
2018-08-18T02:46:03.620Z,49.8
2018-08-18T02:46:53.716Z,49.8
2018-08-18T02:47:43.449Z,49.8
2018-08-18T02:48:33.524Z,49.8
2018-08-18T02:49:23.851Z,49.8
2018-08-18T02:50:13.945Z,49.8
2018-08-18T02:51:03.963Z,49.8
2018-08-18T02:51:53.484Z,49.7
2018-08-18T02:52:43.562Z,49.7
2018-08-18T02:53:34.187Z,49.7
2018-08-18T02:54:24.228Z,49.7
2018-08-18T02:55:14.288Z,49.7
2018-08-18T02:56:04.356Z,49.7
2018-08-18T02:56:54.430Z,49.7
2018-08-18T02:57:44.332Z,49.6
2018-08-18T02:58:34.265Z,49.7
2018-08-18T02:59:24.614Z,49.6
2018-08-18T03:00:14.675Z,49.6
2018-08-18T03:01:04.455Z,49.6
2018-08-18T03:01:54.799Z,49.6
2018-08-18T03:02:44.909Z,49.6
2018-08-18T03:03:34.920Z,49.6
2018-08-18T03:04:24.694Z,49.6
2018-08-18T03:05:15.043Z,49.6
2018-08-18T03:06:04.836Z,49.6
2018-08-18T03:06:54.900Z,49.6
2018-08-18T03:07:45.337Z,49.6
2018-08-18T03:08:34.526Z,49.6
2018-08-18T03:09:25.456Z,49.6
2018-08-18T03:10:15.194Z,49.6
2018-08-18T03:11:05.272Z,49.6
2018-08-18T03:11:55.328Z,49.6
2018-08-18T03:12:45.386Z,49.6
2018-08-18T03:13:35.479Z,49.6
2018-08-18T03:14:25.524Z,49.5
2018-08-18T03:15:15.865Z,49.6
2018-08-18T03:16:05.651Z,49.5
2018-08-18T03:16:55.411Z,49.5
2018-08-18T03:17:45.789Z,49.5
2018-08-18T03:18:35.857Z,49.5
2018-08-18T03:19:25.893Z,49.5
2018-08-18T03:20:16.249Z,49.5
2018-08-18T03:21:05.462Z,49.5
2018-08-18T03:21:56.387Z,49.5
2018-08-18T03:22:46.136Z,49.5
2018-08-18T03:23:35.975Z,49.5
2018-08-18T03:24:26.028Z,49.4
2018-08-18T03:25:16.279Z,49.5
2018-08-18T03:26:06.701Z,49.4
2018-08-18T03:26:56.724Z,49.4
2018-08-18T03:27:46.258Z,49.4
2018-08-18T03:28:35.737Z,49.4
2018-08-18T03:29:26.079Z,49.4
2018-08-18T03:30:16.609Z,49.4
2018-08-18T03:31:06.564Z,49.4
2018-08-18T03:31:56.610Z,49.4
2018-08-18T03:32:46.322Z,49.4
2018-08-18T03:33:37.254Z,49.4
2018-08-18T03:34:26.746Z,49.4
2018-08-18T03:35:17.071Z,49.4
2018-08-18T03:36:06.593Z,49.4
2018-08-18T03:36:57.487Z,49.4
2018-08-18T03:37:47.528Z,49.4
2018-08-18T03:38:37.070Z,49.4
2018-08-18T03:39:27.380Z,49.4
2018-08-18T03:40:16.884Z,49.4
2018-08-18T03:41:07.554Z,49.4
2018-08-18T03:41:57.332Z,49.3
2018-08-18T03:42:47.361Z,49.3
2018-08-18T03:43:37.977Z,49.3
2018-08-18T03:44:27.784Z,49.3
2018-08-18T03:45:17.896Z,49.3
2018-08-18T03:46:07.941Z,49.3
2018-08-18T03:46:58.027Z,49.3
2018-08-18T03:47:48.349Z,49.3
2018-08-18T03:48:38.164Z,49.3
2018-08-18T03:49:27.958Z,49.3
2018-08-18T03:50:18.257Z,49.3
2018-08-18T03:51:08.660Z,49.3
2018-08-18T03:51:58.141Z,49.3
2018-08-18T03:52:48.769Z,49.3
2018-08-18T03:53:38.796Z,49.3
2018-08-18T03:54:28.646Z,49.3
2018-08-18T03:55:18.997Z,49.3
2018-08-18T03:56:09.008Z,49.3
2018-08-18T03:56:58.471Z,49.3
2018-08-18T03:57:48.859Z,49.3
2018-08-18T03:58:39.196Z,49.3
2018-08-18T03:59:28.983Z,49.2
2018-08-18T04:00:19.031Z,49.3
2018-08-18T04:01:08.554Z,49.2
2018-08-18T04:02:00.158Z,49.2
2018-08-18T04:02:49.597Z,49.2
2018-08-18T04:03:39.282Z,49.2
2018-08-18T04:04:29.626Z,49.2
2018-08-18T04:05:19.105Z,49.2
2018-08-18T04:06:09.187Z,49.2
2018-08-18T04:06:59.281Z,49.2
2018-08-18T04:07:49.603Z,49.2
2018-08-18T04:08:39.648Z,49.2
2018-08-18T04:09:30.088Z,49.2
2018-08-18T04:10:19.778Z,49.1
2018-08-18T04:11:09.601Z,49.1
2018-08-18T04:11:59.390Z,49.1
2018-08-18T04:12:50.293Z,49.1
2018-08-18T04:13:40.378Z,49.1
2018-08-18T04:14:29.810Z,49.1
2018-08-18T04:15:19.601Z,49.1
2018-08-18T04:16:09.689Z,49.1
2018-08-18T04:16:59.770Z,49.1
2018-08-18T04:17:50.457Z,49.1
2018-08-18T04:18:40.119Z,49.1
2018-08-18T04:19:30.458Z,49.1
2018-08-18T04:20:20.846Z,49.1
2018-08-18T04:21:10.927Z,49.1
2018-08-18T04:22:00.762Z,49.1
2018-08-18T04:22:50.747Z,49.1
2018-08-18T04:23:39.665Z,49.1
2018-08-18T04:24:31.195Z,49.1
2018-08-18T04:25:22.095Z,49
2018-08-18T04:26:11.068Z,49.1
2018-08-18T04:27:00.516Z,49
2018-08-18T04:27:50.953Z,49.1
2018-08-18T04:28:41.505Z,49.1
2018-08-18T04:29:31.286Z,49
2018-08-18T04:30:20.829Z,49
2018-08-18T04:31:11.416Z,49
2018-08-18T04:32:01.740Z,49
2018-08-18T04:32:51.905Z,49
2018-08-18T04:33:41.903Z,49
2018-08-18T04:34:31.931Z,49
2018-08-18T04:35:21.987Z,49
2018-08-18T04:36:12.076Z,49
2018-08-18T04:37:01.857Z,49
2018-08-18T04:37:51.908Z,48.9
2018-08-18T04:38:41.693Z,48.9
2018-08-18T04:39:32.079Z,48.9
2018-08-18T04:40:21.495Z,48.9
2018-08-18T04:41:12.151Z,48.9
2018-08-18T04:42:01.935Z,48.9
2018-08-18T04:42:52.271Z,48.9
2018-08-18T04:43:42.789Z,48.9
2018-08-18T04:44:32.404Z,48.9
2018-08-18T04:45:22.471Z,48.9
2018-08-18T04:46:12.817Z,48.9
2018-08-18T04:47:02.342Z,48.9
2018-08-18T04:47:52.997Z,48.9
2018-08-18T04:48:42.760Z,48.9
2018-08-18T05:06:51.081Z,48.8
2018-08-18T05:07:41.351Z,48.8
2018-08-18T05:08:31.709Z,48.8
2018-08-18T05:09:21.521Z,48.7
2018-08-18T05:10:11.828Z,48.8
2018-08-18T05:11:01.634Z,48.8
2018-08-18T05:11:52.241Z,48.7
2018-08-18T05:12:41.993Z,48.8
2018-08-18T05:13:32.073Z,48.7
2018-08-18T05:14:21.613Z,48.7
2018-08-18T05:15:11.908Z,48.7
2018-08-18T05:16:01.458Z,48.7
2018-08-18T05:16:52.190Z,48.7
2018-08-18T05:17:42.142Z,48.7
2018-08-18T05:18:31.365Z,48.7
2018-08-18T05:19:23.273Z,48.7
2018-08-18T05:20:12.625Z,48.7
2018-08-18T05:21:01.847Z,48.7
2018-08-18T05:21:52.486Z,48.6
2018-08-18T05:22:41.989Z,48.6
2018-08-18T05:23:32.617Z,48.6
2018-08-18T05:24:22.419Z,48.6
2018-08-18T05:25:12.168Z,48.6
2018-08-18T05:26:02.521Z,48.6
2018-08-18T05:26:52.859Z,48.6
2018-08-18T05:27:42.909Z,48.6
2018-08-18T05:28:32.975Z,48.6
2018-08-18T05:29:22.813Z,48.6
2018-08-18T05:30:12.858Z,48.6
2018-08-18T05:31:02.883Z,48.6
2018-08-18T05:31:52.983Z,48.6
2018-08-18T05:32:43.318Z,48.6
2018-08-18T05:33:33.319Z,48.6
2018-08-18T05:34:23.702Z,48.6
2018-08-18T05:35:13.781Z,48.6
2018-08-18T05:36:03.553Z,48.6
2018-08-18T05:36:53.283Z,48.6
2018-08-18T05:37:43.356Z,48.6
2018-08-18T05:38:33.726Z,48.5
2018-08-18T05:39:23.504Z,48.6
2018-08-18T05:40:13.343Z,48.5
2018-08-18T05:41:03.632Z,48.5
2018-08-18T05:41:54.228Z,48.6
2018-08-18T05:42:44.023Z,48.5
2018-08-18T05:43:34.410Z,48.5
2018-08-18T05:44:24.174Z,48.5
2018-08-18T05:45:13.907Z,48.5
2018-08-18T05:46:03.515Z,48.5
2018-08-18T05:46:54.626Z,48.5
2018-08-18T05:47:45.762Z,48.4
2018-08-18T05:48:34.512Z,48.4
2018-08-18T05:49:24.852Z,48.5
2018-08-18T05:50:14.908Z,48.4
2018-08-18T05:51:04.375Z,48.4
2018-08-18T05:51:55.031Z,48.4
2018-08-18T05:52:45.115Z,48.4
2018-08-18T05:53:34.978Z,48.4
2018-08-18T05:54:24.956Z,48.4
2018-08-18T05:55:15.341Z,48.4
2018-08-18T05:56:04.245Z,48.4
2018-08-18T05:56:54.889Z,48.4
2018-08-18T05:57:44.665Z,48.4
2018-08-18T05:58:35.560Z,48.4
2018-08-18T05:59:25.076Z,48.4
2018-08-18T06:00:15.155Z,48.4
2018-08-18T06:01:04.926Z,48.4
2018-08-18T06:01:55.563Z,48.4
2018-08-18T06:02:45.576Z,48.4
2018-08-18T06:03:35.696Z,48.4
2018-08-18T06:04:26.040Z,48.4
2018-08-18T06:05:15.523Z,48.4
2018-08-18T06:06:05.915Z,48.4
2018-08-18T06:06:55.085Z,48.3
2018-08-18T06:07:45.968Z,48.4
2018-08-18T06:08:36.057Z,48.3
2018-08-18T06:09:26.449Z,48.3
2018-08-18T06:10:16.418Z,48.3
2018-08-18T06:11:06.522Z,48.3
2018-08-18T06:11:56.133Z,48.3
2018-08-18T06:12:46.630Z,48.3
2018-08-18T06:13:36.434Z,48.3
2018-08-18T06:14:26.447Z,48.3
2018-08-18T06:15:16.819Z,48.3
2018-08-18T06:16:06.859Z,48.3
2018-08-18T06:16:56.400Z,48.3
2018-08-18T06:17:46.136Z,48.3
2018-08-18T06:18:36.776Z,48.3
2018-08-18T06:19:26.861Z,48.3
2018-08-18T06:20:16.157Z,48.3
2018-08-18T06:21:07.240Z,48.3
2018-08-18T06:21:56.860Z,48.3
2018-08-18T06:22:47.389Z,48.3
2018-08-18T06:23:37.545Z,48.3
2018-08-18T06:24:27.548Z,48.3
2018-08-18T06:25:17.333Z,48.2
2018-08-18T06:26:07.374Z,48.2
2018-08-18T06:26:57.473Z,48.2
2018-08-18T06:27:47.255Z,48.2
2018-08-18T06:28:37.074Z,48.2
2018-08-18T06:29:27.354Z,48.2
2018-08-18T06:30:16.870Z,48.2
2018-08-18T06:31:07.790Z,48.2
2018-08-18T06:31:57.630Z,48.2
2018-08-18T06:32:47.638Z,48.2
2018-08-18T06:33:37.992Z,48.2
2018-08-18T06:34:28.281Z,48.2
2018-08-18T06:35:18.145Z,48.3
2018-08-18T06:36:07.917Z,48.2
2018-08-18T06:36:58.519Z,48.1
2018-08-18T06:37:48.002Z,47.9
2018-08-18T06:38:38.105Z,47.8
2018-08-18T06:39:28.129Z,47.8
2018-08-18T06:40:18.481Z,47.8
2018-08-18T06:41:08.934Z,47.8
2018-08-18T06:41:59.559Z,47.7
2018-08-18T06:42:48.755Z,47.7
2018-08-18T06:43:38.473Z,47.7
2018-08-18T06:44:28.814Z,47.6
2018-08-18T06:45:18.884Z,47.6
2018-08-18T06:46:08.925Z,47.6
2018-08-18T06:46:59.249Z,47.6
2018-08-18T06:47:49.061Z,47.6
2018-08-18T06:48:38.563Z,47.6
2018-08-18T06:49:29.145Z,47.6
2018-08-18T06:50:19.229Z,47.6
2018-08-18T06:51:09.047Z,47.6
2018-08-18T06:51:59.634Z,47.6
2018-08-18T06:52:49.448Z,47.6
2018-08-18T06:53:39.207Z,47.6
2018-08-18T06:54:30.769Z,47.6
2018-08-18T06:55:21.303Z,47.6
2018-08-18T06:56:09.963Z,47.6
2018-08-18T06:57:00.443Z,47.6
2018-08-18T06:57:48.982Z,47.5
2018-08-18T06:58:39.876Z,47.5
2018-08-18T06:59:30.198Z,47.5
2018-08-18T07:00:20.286Z,47.5
2018-08-18T07:01:10.087Z,47.5
2018-08-18T07:02:00.457Z,47.5
2018-08-18T07:02:49.355Z,47.5
2018-08-18T07:03:40.444Z,47.5
2018-08-18T07:04:30.624Z,47.5
2018-08-18T07:05:20.721Z,47.5
2018-08-18T07:06:10.775Z,47.5
2018-08-18T07:07:00.562Z,47.5
2018-08-18T07:07:50.906Z,47.4
2018-08-18T07:08:40.665Z,47.4
2018-08-18T07:09:30.743Z,47.4
2018-08-18T07:10:20.836Z,47.4
2018-08-18T07:11:10.884Z,47.4
2018-08-18T07:12:00.943Z,47.4
2018-08-18T07:12:51.014Z,47.5
2018-08-18T07:13:41.097Z,47.6
2018-08-18T07:14:30.827Z,47.6
2018-08-18T07:15:20.081Z,47.6
2018-08-18T07:16:10.988Z,47.7
2018-08-18T07:17:01.340Z,47.7
2018-08-18T07:17:51.678Z,47.8
2018-08-18T07:18:41.503Z,47.8
2018-08-18T07:19:32.380Z,47.8
2018-08-18T07:20:21.690Z,47.9
2018-08-18T07:21:11.327Z,47.9
2018-08-18T07:22:01.436Z,47.9
2018-08-18T07:22:51.806Z,48
2018-08-18T07:23:41.793Z,48.1
2018-08-18T07:24:32.154Z,48.1
2018-08-18T07:25:22.214Z,48.2
2018-08-18T07:26:12.326Z,48.2
2018-08-18T07:27:02.321Z,48.3
2018-08-18T07:27:52.404Z,48.3
2018-08-18T07:28:43.515Z,48.4
2018-08-18T07:29:32.517Z,48.4
2018-08-18T07:30:22.313Z,48.4
2018-08-18T07:31:12.706Z,48.5
2018-08-18T07:32:02.468Z,48.6
2018-08-18T07:32:52.533Z,48.6
2018-08-18T07:33:42.994Z,48.7
2018-08-18T07:34:32.732Z,48.8
2018-08-18T07:35:22.507Z,48.8
2018-08-18T07:36:12.801Z,48.8
2018-08-18T07:37:03.275Z,48.9
2018-08-18T07:37:52.917Z,48.9
2018-08-18T07:38:43.309Z,49
2018-08-18T07:39:33.101Z,49.1
2018-08-18T07:40:22.577Z,49.1
2018-08-18T07:41:13.216Z,49.2
2018-08-18T07:42:02.985Z,49.3
2018-08-18T07:42:53.641Z,49.3
2018-08-18T07:43:43.111Z,49.4
2018-08-18T07:44:33.187Z,49.4
2018-08-18T07:45:23.241Z,49.5
2018-08-18T07:46:14.105Z,49.5
2018-08-18T07:47:03.656Z,49.6
2018-08-18T07:47:53.801Z,49.6
2018-08-18T07:48:44.075Z,49.7
2018-08-18T07:49:33.070Z,49.8
2018-08-18T07:50:24.194Z,49.8
2018-08-18T07:51:13.693Z,49.9
2018-08-18T07:52:03.752Z,49.9
2018-08-18T07:52:54.391Z,50
2018-08-18T07:53:44.280Z,50.1
2018-08-18T07:54:33.948Z,50.1
2018-08-18T07:55:24.302Z,50.2
2018-08-18T07:56:14.627Z,50.2
2018-08-18T07:57:04.081Z,50.3
2018-08-18T07:57:53.984Z,50.4
2018-08-18T07:58:44.826Z,50.4
2018-08-18T07:59:35.004Z,50.5
2018-08-18T08:00:24.939Z,50.5
2018-08-18T08:01:15.016Z,50.6
2018-08-18T08:02:05.083Z,50.7
2018-08-18T08:02:54.834Z,50.7
2018-08-18T08:03:45.181Z,50.8
2018-08-18T08:04:34.699Z,50.8
2018-08-18T08:05:24.819Z,50.9
2018-08-18T08:06:15.383Z,50.9
2018-08-18T08:07:05.172Z,51
2018-08-18T08:07:55.238Z,51.1
2018-08-18T08:08:45.571Z,51.1
2018-08-18T08:09:35.105Z,51.1
2018-08-18T08:10:25.410Z,51.2
2018-08-18T08:11:15.508Z,51.3
2018-08-18T08:12:05.861Z,51.3
2018-08-18T08:12:56.709Z,51.4
2018-08-18T08:13:45.702Z,51.4
2018-08-18T08:14:36.069Z,51.5
2018-08-18T08:15:26.130Z,51.6
2018-08-18T08:16:16.189Z,51.6
2018-08-18T08:17:05.968Z,51.7
2018-08-18T08:17:56.042Z,51.7
2018-08-18T08:18:45.817Z,51.8
2018-08-18T08:19:35.598Z,51.8
2018-08-18T08:20:26.636Z,51.9
2018-08-18T08:22:06.088Z,52
2018-08-18T08:22:56.619Z,52.1
2018-08-18T08:23:46.207Z,52.1
2018-08-18T08:24:36.281Z,52.2
2018-08-18T08:25:26.902Z,52.2
2018-08-18T08:26:16.967Z,52.3
2018-08-18T08:27:07.013Z,52.3
2018-08-18T08:28:47.167Z,52.4
2018-08-18T08:29:37.340Z,52.5
2018-08-18T08:30:27.327Z,52.6
2018-08-18T08:31:17.054Z,52.6
2018-08-18T08:32:07.380Z,52.7
2018-08-18T08:32:57.492Z,52.7
2018-08-18T08:33:47.671Z,52.8
2018-08-18T08:34:37.642Z,52.8
2018-08-18T08:35:27.584Z,52.9
2018-08-18T08:36:17.139Z,52.9
2018-08-18T08:37:07.779Z,53
2018-08-18T08:37:57.574Z,53.1
2018-08-18T08:38:47.651Z,53.1
2018-08-18T08:39:38.119Z,53.2
2018-08-18T08:40:27.707Z,53.2
2018-08-18T08:41:19.613Z,53.3
2018-08-18T08:42:07.605Z,53.3
2018-08-18T08:43:00.125Z,53.4
2018-08-18T08:43:47.747Z,53.4
2018-08-18T08:44:38.100Z,53.5
2018-08-18T08:45:28.854Z,53.6
2018-08-18T08:46:18.528Z,53.6
2018-08-18T08:47:08.266Z,53.7
2018-08-18T08:47:58.361Z,53.7
2018-08-18T08:48:48.276Z,53.8
2018-08-18T08:49:38.749Z,53.8
2018-08-18T08:50:28.936Z,53.9
2018-08-18T08:51:19.088Z,53.9
2018-08-18T08:52:08.730Z,54
2018-08-18T08:52:58.777Z,54
2018-08-18T08:53:49.608Z,54.1
2018-08-18T08:54:39.392Z,54.2
2018-08-18T08:55:28.429Z,54.2
2018-08-18T08:56:19.567Z,54.3
2018-08-18T08:57:09.790Z,54.3
2018-08-18T08:57:59.451Z,54.4
2018-08-18T08:58:49.793Z,54.4
2018-08-18T08:59:40.302Z,54.5
2018-08-18T09:00:29.363Z,54.6
2018-08-18T09:01:19.722Z,54.6
2018-08-18T09:02:09.842Z,54.7
2018-08-18T09:02:59.416Z,54.8
2018-08-18T09:03:50.307Z,54.8
2018-08-18T09:04:39.588Z,54.8
2018-08-18T09:21:13.173Z,56
2018-08-18T09:22:02.913Z,56.1
2018-08-18T09:22:53.241Z,56.1
2018-08-18T09:23:43.035Z,56.1
2018-08-18T09:24:33.116Z,56.2
2018-08-18T09:25:24.055Z,56.3
2018-08-18T09:26:14.616Z,56.3
2018-08-18T09:27:02.737Z,56.4
2018-08-18T09:27:54.172Z,56.4
2018-08-18T09:28:43.717Z,56.5
2018-08-18T09:29:34.037Z,56.6
2018-08-18T09:30:24.126Z,56.6
2018-08-18T09:31:14.492Z,56.7
2018-08-18T09:32:04.042Z,56.8
2018-08-18T09:32:54.620Z,56.8
2018-08-18T09:33:44.724Z,56.9
2018-08-18T09:34:34.475Z,56.9
2018-08-18T09:35:24.537Z,57
2018-08-18T09:36:15.541Z,57.1
2018-08-18T09:37:04.955Z,57.1
2018-08-18T09:37:55.002Z,57.1
2018-08-18T09:38:44.811Z,57.2
2018-08-18T09:39:34.871Z,57.3
2018-08-18T09:40:25.201Z,57.3
2018-08-18T09:41:15.035Z,57.3
2018-08-18T09:42:04.779Z,57.4
2018-08-18T09:42:55.124Z,57.4
2018-08-18T09:43:45.181Z,57.6
2018-08-18T09:44:35.546Z,57.6
2018-08-18T09:45:26.119Z,57.7
2018-08-18T09:46:14.856Z,57.7
2018-08-18T09:47:55.477Z,57.8
2018-08-18T09:48:45.843Z,57.9
2018-08-18T09:49:35.042Z,57.9
2018-08-18T09:50:25.399Z,58
2018-08-18T09:51:16.007Z,58.1
2018-08-18T09:52:06.070Z,58.1
2018-08-18T09:52:56.163Z,58.1
2018-08-18T09:53:44.898Z,58.2
2018-08-18T09:54:36.280Z,58.3
2018-08-18T09:55:25.503Z,58.3
2018-08-18T09:56:16.118Z,58.4
2018-08-18T09:57:06.285Z,58.4
2018-08-18T09:57:56.529Z,58.5
2018-08-18T09:59:36.427Z,58.6
2018-08-18T10:00:26.460Z,58.7
2018-08-18T10:01:16.581Z,58.8
2018-08-18T10:02:06.900Z,58.8
2018-08-18T10:02:56.936Z,58.8
2018-08-18T10:03:46.729Z,58.9
2018-08-18T10:04:36.487Z,58.9
2018-08-18T10:05:27.119Z,59
2018-08-18T10:06:17.206Z,59.1
2018-08-18T10:07:07.297Z,59.1
2018-08-18T10:07:57.371Z,59.2
2018-08-18T10:08:47.427Z,59.2
2018-08-18T10:09:37.473Z,59.3
2018-08-18T10:10:27.279Z,59.3
2018-08-18T10:11:17.665Z,59.4
2018-08-18T10:12:07.452Z,59.4
2018-08-18T10:12:57.746Z,59.5
2018-08-18T10:13:47.797Z,59.6
2018-08-18T10:14:37.580Z,59.6
2018-08-18T10:15:28.279Z,59.6
2018-08-18T10:16:17.774Z,59.8
2018-08-18T10:17:07.810Z,59.8
2018-08-18T10:17:57.874Z,59.8
2018-08-18T10:18:47.971Z,59.9
2018-08-18T10:19:37.712Z,59.9
2018-08-18T10:20:27.781Z,60
2018-08-18T10:21:18.393Z,60.1
2018-08-18T10:22:07.647Z,60.1
2018-08-18T10:22:58.259Z,60.2
2018-08-18T10:23:48.596Z,60.3
2018-08-18T10:24:38.323Z,60.3
2018-08-18T10:25:28.413Z,60.3
2018-08-18T10:26:18.197Z,60.4
2018-08-18T10:27:09.171Z,60.4
2018-08-18T10:27:58.915Z,60.5
2018-08-18T10:28:48.379Z,60.6
2018-08-18T10:29:38.992Z,60.6
2018-08-18T10:30:28.796Z,60.7
2018-08-18T10:31:18.603Z,60.8
2018-08-18T10:32:08.932Z,60.8
2018-08-18T10:32:59.016Z,60.8
2018-08-18T10:33:49.052Z,60.9
2018-08-18T10:34:39.414Z,60.9
2018-08-18T10:35:29.487Z,61
2018-08-18T10:36:19.548Z,61.1
2018-08-18T10:37:09.351Z,61.1
2018-08-18T10:37:59.706Z,61.2
2018-08-18T10:38:49.442Z,61.2
2018-08-18T10:39:39.516Z,61.3
2018-08-18T10:40:29.862Z,61.3
2018-08-18T10:41:19.918Z,61.4
2018-08-18T10:42:11.321Z,61.4
2018-08-18T10:43:00.102Z,61.5
2018-08-18T10:43:49.961Z,61.5
2018-08-18T10:44:40.231Z,61.6
2018-08-18T10:45:30.304Z,61.6
2018-08-18T10:46:20.361Z,61.7
2018-08-18T10:47:10.121Z,61.7
2018-08-18T10:48:00.472Z,61.8
2018-08-18T10:48:50.561Z,61.8
2018-08-18T10:49:40.608Z,61.8
2018-08-18T10:50:30.420Z,61.9
2018-08-18T10:51:20.504Z,61.9
2018-08-18T10:52:10.802Z,61.9
2018-08-18T10:53:00.318Z,62
2018-08-18T10:53:50.946Z,62.1
2018-08-18T10:54:41.013Z,62.1
2018-08-18T10:55:30.810Z,62.1
2018-08-18T10:56:21.147Z,62.2
2018-08-18T10:57:11.206Z,62.3
2018-08-18T10:58:01.019Z,62.3
2018-08-18T10:58:51.076Z,62.3
2018-08-18T10:59:40.563Z,62.4
2018-08-18T11:00:30.871Z,62.4
2018-08-18T11:01:21.226Z,62.4
2018-08-18T11:02:11.569Z,62.5
2018-08-18T11:03:01.653Z,62.6
2018-08-18T11:03:52.175Z,62.6
2018-08-18T11:04:41.757Z,62.6
2018-08-18T11:05:31.565Z,62.7
2018-08-18T11:06:21.886Z,62.8
2018-08-18T11:07:11.157Z,62.8
2018-08-18T11:08:01.751Z,62.8
2018-08-18T11:08:52.129Z,62.9
2018-08-18T11:09:41.328Z,62.9
2018-08-18T11:10:31.952Z,62.9
2018-08-18T11:11:22.057Z,63
2018-08-18T11:12:11.856Z,63
2018-08-18T11:13:02.145Z,63.1
2018-08-18T11:13:52.447Z,63.1
2018-08-18T11:14:41.975Z,63.1
2018-08-18T11:15:32.330Z,63.2
2018-08-18T11:16:22.114Z,63.3
2018-08-18T11:17:12.490Z,63.3
2018-08-18T11:18:02.856Z,63.3
2018-08-18T11:18:52.905Z,63.4
2018-08-18T11:19:43.005Z,63.4
2018-08-18T11:20:32.766Z,63.4
2018-08-18T11:21:23.113Z,63.5
2018-08-18T11:22:12.908Z,63.6
2018-08-18T11:23:03.274Z,63.6
2018-08-18T11:23:53.044Z,63.6
2018-08-18T11:24:43.362Z,63.6
2018-08-18T11:25:32.584Z,63.7
2018-08-18T11:26:23.215Z,63.8
2018-08-18T11:27:13.282Z,63.8
2018-08-18T11:28:03.154Z,63.8
2018-08-18T11:28:54.730Z,63.8
2018-08-18T11:29:43.741Z,63.9
2018-08-18T11:30:33.572Z,63.9
2018-08-18T11:31:23.636Z,63.9
2018-08-18T11:32:13.986Z,63.9
2018-08-18T11:33:04.066Z,63.9
2018-08-18T11:33:53.816Z,63.9
2018-08-18T11:34:43.644Z,64
2018-08-18T11:35:33.888Z,64.1
2018-08-18T11:36:23.963Z,64.1
2018-08-18T11:37:14.337Z,64.1
2018-08-18T11:38:04.393Z,64.1
2018-08-18T11:38:53.907Z,64.1
2018-08-18T11:39:44.230Z,64.1
2018-08-18T11:40:34.305Z,64.2
2018-08-18T11:41:24.757Z,64.2
2018-08-18T11:42:14.412Z,64.2
2018-08-18T11:43:04.800Z,64.3
2018-08-18T11:43:54.869Z,64.3
2018-08-18T11:44:44.314Z,64.3
2018-08-18T11:45:34.466Z,64.3
2018-08-18T11:46:24.507Z,64.3
2018-08-18T11:47:14.937Z,64.4
2018-08-18T11:48:05.156Z,64.4
2018-08-18T11:48:55.019Z,64.4
2018-08-18T11:49:44.485Z,64.4
2018-08-18T11:50:35.359Z,64.5
2018-08-18T11:51:24.894Z,64.5
2018-08-18T11:52:15.253Z,64.5
2018-08-18T11:53:05.315Z,64.6
2018-08-18T11:53:55.643Z,64.6
2018-08-18T11:54:45.204Z,64.6
2018-08-18T11:55:35.779Z,64.7
2018-08-18T11:56:25.863Z,64.7
2018-08-18T11:57:15.073Z,64.8
2018-08-18T11:58:05.963Z,64.8
2018-08-18T11:58:56.087Z,64.8
2018-08-18T11:59:46.112Z,64.8
2018-08-18T12:00:35.899Z,64.9
2018-08-18T12:01:26.255Z,64.9
2018-08-18T12:02:16.312Z,64.9
2018-08-18T12:03:06.385Z,64.9